createdAt,value
2017-10-13T00:00:06.371Z,6.50
2017-10-13T00:02:34.672Z,5.83
2017-10-13T00:05:03.021Z,6.10
2017-10-13T00:07:31.467Z,5.67
2017-10-13T00:09:59.853Z,6.10
2017-10-13T00:12:28.219Z,5.73
2017-10-13T00:14:56.586Z,7.33
2017-10-13T00:17:24.921Z,5.67
2017-10-13T00:19:53.253Z,5.73
2017-10-13T00:22:21.590Z,7.07
2017-10-13T00:24:49.905Z,6.00
2017-10-13T00:27:18.297Z,5.90
2017-10-13T00:29:46.601Z,6.23
2017-10-13T00:32:14.910Z,6.90
2017-10-13T00:34:43.256Z,6.00
2017-10-13T00:37:11.802Z,5.73
2017-10-13T00:39:40.119Z,5.80
2017-10-13T00:42:08.411Z,7.70
2017-10-13T00:44:36.740Z,5.93
2017-10-13T00:47:05.082Z,6.40
2017-10-13T00:49:33.402Z,6.60
2017-10-13T00:52:01.784Z,6.97
2017-10-13T00:54:30.157Z,8.53
2017-10-13T00:56:58.454Z,5.83
2017-10-13T00:59:26.799Z,7.37
2017-10-13T01:01:55.135Z,6.70
2017-10-13T01:04:23.456Z,8.23
2017-10-13T01:06:51.823Z,6.27
2017-10-13T01:09:20.158Z,6.37
2017-10-13T01:11:48.480Z,7.30
2017-10-13T01:14:16.797Z,8.40
2017-10-13T01:16:45.141Z,7.33
2017-10-13T01:19:13.478Z,7.30
2017-10-13T01:21:41.828Z,6.80
2017-10-13T01:24:10.226Z,6.37
2017-10-13T01:26:38.541Z,5.90
2017-10-13T01:29:06.906Z,6.47
2017-10-13T01:31:35.269Z,6.70
2017-10-13T01:34:03.645Z,6.07
2017-10-13T01:36:31.972Z,6.80
2017-10-13T01:39:00.375Z,5.80
2017-10-13T01:41:28.749Z,6.87
2017-10-13T01:43:57.112Z,7.33
2017-10-13T01:46:25.470Z,7.10
2017-10-13T01:48:54.018Z,7.50
2017-10-13T01:51:22.367Z,9.10
2017-10-13T01:53:50.686Z,8.10
2017-10-13T01:56:18.987Z,6.60
2017-10-13T01:58:47.348Z,8.13
2017-10-13T02:01:15.703Z,7.70
2017-10-13T02:03:44.158Z,8.37
2017-10-13T02:06:12.542Z,7.37
2017-10-13T02:08:40.871Z,8.37
2017-10-13T02:11:09.173Z,7.80
2017-10-13T02:13:37.526Z,7.10
2017-10-13T02:16:05.875Z,7.40
2017-10-13T02:18:34.193Z,7.83
2017-10-13T02:21:02.560Z,7.97
2017-10-13T02:23:30.908Z,7.80
2017-10-13T02:25:59.244Z,7.50
2017-10-13T02:28:27.614Z,7.27
2017-10-13T02:30:55.955Z,9.30
2017-10-13T02:33:24.349Z,7.93
2017-10-13T02:35:52.652Z,7.27
2017-10-13T02:38:20.990Z,7.83
2017-10-13T02:40:49.309Z,7.40
2017-10-13T02:43:17.634Z,8.17
2017-10-13T02:45:45.986Z,7.73
2017-10-13T02:48:14.298Z,6.80
2017-10-13T02:50:42.647Z,8.00
2017-10-13T02:53:11.147Z,6.70
2017-10-13T02:55:39.474Z,7.33
2017-10-13T02:58:07.784Z,7.00
2017-10-13T03:00:36.152Z,6.43
2017-10-13T03:03:04.468Z,7.90
2017-10-13T03:05:32.898Z,7.80
2017-10-13T03:08:01.257Z,7.37
2017-10-13T03:10:29.594Z,8.03
2017-10-13T03:12:57.927Z,7.23
2017-10-13T03:15:26.287Z,6.70
2017-10-13T03:17:54.609Z,7.80
2017-10-13T03:20:23.089Z,8.90
2017-10-13T03:22:51.434Z,7.40
2017-10-13T03:25:19.788Z,7.93
2017-10-13T03:27:48.112Z,7.57
2017-10-13T03:30:16.439Z,8.10
2017-10-13T03:32:44.966Z,7.87
2017-10-13T03:35:13.294Z,6.73
2017-10-13T03:37:41.606Z,7.97
2017-10-13T03:40:09.989Z,7.20
2017-10-13T03:42:38.301Z,8.17
2017-10-13T03:45:06.648Z,8.90
2017-10-13T03:47:35.028Z,8.03
2017-10-13T03:50:03.361Z,7.77
2017-10-13T03:52:31.709Z,9.37
2017-10-13T03:55:00.073Z,7.67
2017-10-13T03:57:28.429Z,9.27
2017-10-13T03:59:56.796Z,8.30
2017-10-13T04:02:25.242Z,8.40
2017-10-13T04:04:53.592Z,8.17
2017-10-13T04:07:22.004Z,8.77
2017-10-13T04:09:50.392Z,8.20
2017-10-13T04:12:18.778Z,7.60
2017-10-13T04:14:47.117Z,8.17
2017-10-13T04:17:15.482Z,9.30
2017-10-13T04:19:43.805Z,8.00
2017-10-13T04:22:12.132Z,7.43
2017-10-13T04:24:40.529Z,8.70
2017-10-13T04:27:09.142Z,7.90
2017-10-13T04:29:37.455Z,8.10
2017-10-13T04:32:05.902Z,8.43
2017-10-13T04:34:34.239Z,7.57
2017-10-13T04:37:02.606Z,9.10
2017-10-13T04:39:30.996Z,7.93
2017-10-13T04:41:59.374Z,9.10
2017-10-13T04:44:27.729Z,8.77
2017-10-13T04:46:56.558Z,8.80
2017-10-13T04:49:24.930Z,8.97
2017-10-13T04:51:53.325Z,8.10
2017-10-13T04:54:21.870Z,8.57
2017-10-13T04:56:50.228Z,10.20
2017-10-13T04:59:18.775Z,9.00
2017-10-13T05:01:47.205Z,9.60
2017-10-13T05:04:15.568Z,8.90
2017-10-13T05:06:43.968Z,8.27
2017-10-13T05:09:12.316Z,8.77
2017-10-13T05:11:40.694Z,7.70
2017-10-13T05:14:09.084Z,9.07
2017-10-13T05:16:37.502Z,8.90
2017-10-13T05:19:05.873Z,7.57
2017-10-13T05:21:34.896Z,8.87
2017-10-13T05:24:03.317Z,7.40
2017-10-13T05:26:31.653Z,8.10
2017-10-13T05:29:00.154Z,8.97
2017-10-13T05:31:28.594Z,7.80
2017-10-13T05:33:57.119Z,7.20
2017-10-13T05:36:25.527Z,8.87
2017-10-13T05:38:53.949Z,8.80
2017-10-13T05:41:22.288Z,8.30
2017-10-13T05:43:50.709Z,8.27
2017-10-13T05:46:19.131Z,8.60
2017-10-13T05:48:47.673Z,9.50
2017-10-13T05:51:16.061Z,8.90
2017-10-13T05:53:44.435Z,9.10
2017-10-13T05:56:12.805Z,8.23
2017-10-13T05:58:41.171Z,9.30
2017-10-13T06:01:09.592Z,9.00
2017-10-13T06:03:38.001Z,8.73
2017-10-13T06:06:06.458Z,8.50
2017-10-13T06:08:35.009Z,8.80
2017-10-13T06:11:03.554Z,8.67
2017-10-13T06:13:31.911Z,7.97
2017-10-13T06:16:00.379Z,9.73
2017-10-13T06:18:28.760Z,8.60
2017-10-13T06:20:57.183Z,9.30
2017-10-13T06:23:25.628Z,9.60
2017-10-13T06:25:54.095Z,8.50
2017-10-13T06:28:22.568Z,8.63
2017-10-13T06:30:51.312Z,9.23
2017-10-13T06:33:19.722Z,8.40
2017-10-13T06:35:48.160Z,8.60
2017-10-13T06:38:16.649Z,8.60
2017-10-13T06:40:45.057Z,9.13
2017-10-13T06:43:13.529Z,9.10
2017-10-13T06:45:41.909Z,8.97
2017-10-13T06:48:10.306Z,10.00
2017-10-13T06:50:38.729Z,9.10
2017-10-13T06:53:07.718Z,9.33
2017-10-13T06:55:36.144Z,9.30
2017-10-13T06:58:04.555Z,9.40
2017-10-13T07:00:33.183Z,7.40
2017-10-13T07:03:01.650Z,7.93
2017-10-13T07:05:30.072Z,9.97
2017-10-13T07:07:58.533Z,8.07
2017-10-13T07:10:26.973Z,7.90
2017-10-13T07:12:55.729Z,8.23
2017-10-13T07:15:24.212Z,9.20
2017-10-13T07:17:52.667Z,8.70
2017-10-13T07:20:21.101Z,8.43
2017-10-13T07:22:49.581Z,8.40
2017-10-13T07:25:18.034Z,8.93
2017-10-13T07:27:46.451Z,8.73
2017-10-13T07:30:14.904Z,9.00
2017-10-13T07:32:43.313Z,8.50
2017-10-13T07:35:11.790Z,9.57
2017-10-13T07:40:15.018Z,10.60
2017-10-13T07:42:43.600Z,10.73
2017-10-13T07:45:12.007Z,8.33
2017-10-13T07:47:40.754Z,9.30
2017-10-13T07:50:09.414Z,6.47
2017-10-13T07:52:37.901Z,8.50
2017-10-13T07:55:06.339Z,9.10
2017-10-13T07:57:34.963Z,9.70
2017-10-13T08:00:03.331Z,8.70
2017-10-13T08:02:31.779Z,8.50
2017-10-13T08:05:00.343Z,8.70
2017-10-13T08:07:28.743Z,8.40
2017-10-13T08:09:57.364Z,6.93
2017-10-13T08:12:25.933Z,7.97
2017-10-13T08:14:54.549Z,7.30
2017-10-13T08:17:23.138Z,9.10
2017-10-13T08:19:52.033Z,6.63
2017-10-13T08:22:20.944Z,4.30
2017-10-13T08:24:49.402Z,5.70
2017-10-13T08:27:17.770Z,19.30
2017-10-13T08:29:46.230Z,5.13
2017-10-13T08:32:14.617Z,6.03
2017-10-13T08:34:43.077Z,4.90
2017-10-13T08:37:11.977Z,4.60
2017-10-13T08:39:41.069Z,4.50
2017-10-13T08:42:09.562Z,5.43
2017-10-13T08:44:38.314Z,4.47
2017-10-13T08:47:06.902Z,4.20
2017-10-13T08:49:35.334Z,5.27
2017-10-13T08:52:17.898Z,4.30
2017-10-13T08:54:46.268Z,3.63
2017-10-13T08:57:14.805Z,3.43
2017-10-13T08:59:43.276Z,3.30
2017-10-13T09:02:11.756Z,3.03
2017-10-13T09:04:40.161Z,2.50
2017-10-13T09:07:08.585Z,2.90
2017-10-13T09:09:37.038Z,3.00
2017-10-13T09:12:05.452Z,2.53
2017-10-13T09:14:33.866Z,2.57
2017-10-13T09:17:02.318Z,3.03
2017-10-13T09:19:30.757Z,2.27
2017-10-13T09:21:59.142Z,2.03
2017-10-13T09:24:27.618Z,2.50
2017-10-13T09:26:56.170Z,2.00
2017-10-13T09:29:24.601Z,2.33
2017-10-13T09:31:53.068Z,2.53
2017-10-13T09:34:21.462Z,2.37
2017-10-13T09:36:49.991Z,2.03
2017-10-13T09:39:18.367Z,2.10
2017-10-13T09:41:46.925Z,2.60
2017-10-13T09:44:15.366Z,1.50
2017-10-13T09:46:44.518Z,1.63
2017-10-13T09:49:13.597Z,1.43
2017-10-13T09:51:42.131Z,1.70
2017-10-13T09:54:10.831Z,1.50
2017-10-13T09:56:42.521Z,2.20
2017-10-13T09:59:13.957Z,1.60
2017-10-13T10:01:42.415Z,2.00
2017-10-13T10:04:10.970Z,1.77
2017-10-13T10:06:40.339Z,1.90
2017-10-13T10:09:08.841Z,2.43
2017-10-13T10:11:37.355Z,1.73
2017-10-13T10:14:05.823Z,2.70
2017-10-13T10:16:34.461Z,2.67
2017-10-13T10:19:02.906Z,2.03
2017-10-13T10:21:31.343Z,1.87
2017-10-13T10:23:59.719Z,2.20
2017-10-13T10:26:28.049Z,3.73
2017-10-13T10:28:56.477Z,2.00
2017-10-13T10:31:25.311Z,2.83
2017-10-13T10:33:53.897Z,2.17
2017-10-13T10:36:22.291Z,2.27
2017-10-13T10:38:50.738Z,2.00
2017-10-13T10:41:19.089Z,2.50
2017-10-13T10:43:47.523Z,1.70
2017-10-13T10:46:15.941Z,2.13
2017-10-13T10:48:44.349Z,2.03
2017-10-13T10:51:12.782Z,2.13
2017-10-13T10:53:41.217Z,1.70
2017-10-13T10:56:09.702Z,1.97
2017-10-13T10:58:38.102Z,2.43
2017-10-13T11:01:06.627Z,2.50
2017-10-13T11:03:35.010Z,2.43
2017-10-13T11:06:03.462Z,2.10
2017-10-13T11:08:32.025Z,2.27
2017-10-13T11:11:00.430Z,2.00
2017-10-13T11:13:28.874Z,1.47
2017-10-13T11:15:57.613Z,4.73
2017-10-13T11:18:26.134Z,1.83
2017-10-13T11:20:54.792Z,1.97
2017-10-13T11:23:23.238Z,1.53
2017-10-13T11:25:51.665Z,2.47
2017-10-13T11:28:20.278Z,2.00
2017-10-13T11:30:48.617Z,2.43
2017-10-13T11:33:17.137Z,2.30
2017-10-13T11:35:45.541Z,2.07
2017-10-13T11:38:13.896Z,1.97
2017-10-13T11:40:42.386Z,1.27
2017-10-13T11:43:10.757Z,2.50
2017-10-13T11:45:39.149Z,2.10
2017-10-13T11:48:07.590Z,1.90
2017-10-13T11:50:36.013Z,2.10
2017-10-13T11:53:04.525Z,1.60
2017-10-13T11:55:33.077Z,2.13
2017-10-13T11:58:01.562Z,1.63
2017-10-13T12:00:30.005Z,1.60
2017-10-13T12:02:58.630Z,1.90
2017-10-13T12:05:27.138Z,2.80
2017-10-13T12:07:55.498Z,2.73
2017-10-13T12:10:24.451Z,1.70
2017-10-13T12:12:52.833Z,1.80
2017-10-13T12:15:21.289Z,1.60
2017-10-13T12:17:49.746Z,1.40
2017-10-13T12:20:18.148Z,1.30
2017-10-13T12:22:46.622Z,1.70
2017-10-13T12:25:15.125Z,2.10
2017-10-13T12:27:43.495Z,1.53
2017-10-13T12:30:12.281Z,2.10
2017-10-13T12:32:40.662Z,2.57
2017-10-13T12:35:09.069Z,1.77
2017-10-13T12:37:37.438Z,1.60
2017-10-13T12:40:05.833Z,1.60
2017-10-13T12:42:34.201Z,1.63
2017-10-13T12:45:02.762Z,1.83
2017-10-13T12:47:31.199Z,1.50
2017-10-13T12:49:59.587Z,5.80
2017-10-13T12:52:28.070Z,6.97
2017-10-13T12:54:56.487Z,2.13
2017-10-13T12:57:24.896Z,4.63
2017-10-13T12:59:53.261Z,3.10
2017-10-13T13:02:21.676Z,2.10
2017-10-13T13:04:50.007Z,1.40
2017-10-13T13:07:18.497Z,2.03
2017-10-13T13:09:46.871Z,2.10
2017-10-13T13:12:15.264Z,1.90
2017-10-13T13:14:43.609Z,2.30
2017-10-13T13:17:12.011Z,2.40
2017-10-13T13:19:40.409Z,1.83
2017-10-13T13:22:08.710Z,2.60
2017-10-13T13:24:37.028Z,2.00
2017-10-13T13:27:05.464Z,2.93
2017-10-13T13:29:33.882Z,2.07
2017-10-13T13:32:02.258Z,2.67
2017-10-13T13:34:30.680Z,1.60
2017-10-13T13:36:59.826Z,2.90
2017-10-13T13:39:28.218Z,3.73
2017-10-13T13:41:56.610Z,2.07
2017-10-13T13:44:25.025Z,2.10
2017-10-13T13:46:54.328Z,2.70
2017-10-13T13:49:22.705Z,1.90
2017-10-13T13:51:51.173Z,1.80
2017-10-13T13:54:19.512Z,3.60
2017-10-13T13:56:47.923Z,1.87
2017-10-13T13:59:16.345Z,2.20
2017-10-13T14:01:44.772Z,2.17
2017-10-13T14:04:13.132Z,1.90
2017-10-13T14:06:41.600Z,2.20
2017-10-13T14:09:09.931Z,2.53
2017-10-13T14:11:38.313Z,1.80
2017-10-13T14:14:07.703Z,2.40
2017-10-13T14:16:36.032Z,2.17
2017-10-13T14:19:04.418Z,2.70
2017-10-13T14:21:33.236Z,1.90
2017-10-13T14:24:01.731Z,1.83
2017-10-13T14:26:30.530Z,1.90
2017-10-13T14:28:58.951Z,1.90
2017-10-13T14:31:27.335Z,1.87
2017-10-13T14:33:55.837Z,1.90
2017-10-13T14:36:24.284Z,2.23
2017-10-13T14:38:52.798Z,2.30
2017-10-13T14:41:21.158Z,1.63
2017-10-13T14:43:49.595Z,1.67
2017-10-13T14:46:18.422Z,2.17
2017-10-13T14:48:46.812Z,2.00
2017-10-13T14:51:15.190Z,2.70
2017-10-13T14:53:43.582Z,1.90
2017-10-13T14:56:11.926Z,2.27
2017-10-13T14:58:40.398Z,3.23
2017-10-13T15:01:08.842Z,3.13
2017-10-13T15:03:37.218Z,2.70
2017-10-13T15:06:14.181Z,3.97
2017-10-13T15:08:42.524Z,2.90
2017-10-13T15:11:11.014Z,1.97
2017-10-13T15:13:39.497Z,2.67
2017-10-13T15:16:07.865Z,2.13
2017-10-13T15:18:36.302Z,1.97
2017-10-13T15:21:04.919Z,2.30
2017-10-13T15:23:33.561Z,2.50
2017-10-13T15:26:02.151Z,2.53
2017-10-13T15:31:56.167Z,3.17
2017-10-13T15:34:30.281Z,2.70
2017-10-13T15:36:58.998Z,2.63
2017-10-13T15:39:33.029Z,3.23
2017-10-13T15:45:10.574Z,2.97
2017-10-13T15:50:33.435Z,2.73
2017-10-13T15:53:01.873Z,2.63
2017-10-13T15:55:30.269Z,3.47
2017-10-13T15:57:58.656Z,2.93
2017-10-13T16:03:25.553Z,2.80
2017-10-13T16:05:53.988Z,2.47
2017-10-13T16:08:22.583Z,2.63
2017-10-13T16:10:51.203Z,3.03
2017-10-13T16:13:20.275Z,3.67
2017-10-13T16:15:48.709Z,3.10
2017-10-13T16:19:07.214Z,3.83
2017-10-13T16:21:35.679Z,3.27
2017-10-13T16:24:04.176Z,3.07
2017-10-13T16:26:32.681Z,3.00
2017-10-13T16:29:01.137Z,3.47
2017-10-13T16:31:29.605Z,2.90
2017-10-13T16:33:58.001Z,3.10
2017-10-13T16:36:28.675Z,4.10
2017-10-13T16:38:57.164Z,2.77
2017-10-13T16:41:25.530Z,3.30
2017-10-13T16:43:53.914Z,2.87
2017-10-13T16:46:22.403Z,3.77
2017-10-13T16:48:50.794Z,4.50
2017-10-13T16:51:19.199Z,3.43
2017-10-13T16:53:47.559Z,3.20
2017-10-13T16:56:15.956Z,3.83
2017-10-13T16:58:44.353Z,5.27
2017-10-13T17:01:12.854Z,4.40
2017-10-13T17:03:41.208Z,4.20
2017-10-13T17:06:09.594Z,4.50
2017-10-13T17:08:38.002Z,4.77
2017-10-13T17:11:06.413Z,4.17
2017-10-13T17:13:34.824Z,3.60
2017-10-13T17:16:03.208Z,5.97
2017-10-13T17:18:31.579Z,5.03
2017-10-13T17:21:00.145Z,5.00
2017-10-13T17:23:28.646Z,6.17
2017-10-13T17:25:57.019Z,6.20
2017-10-13T17:28:25.483Z,5.60
2017-10-13T17:30:54.145Z,4.93
2017-10-13T17:33:22.530Z,6.00
2017-10-13T17:35:50.971Z,6.10
2017-10-13T17:38:19.295Z,5.53
2017-10-13T17:40:47.684Z,5.00
2017-10-13T17:43:16.065Z,6.40
2017-10-13T17:45:44.462Z,6.40
2017-10-13T17:48:12.846Z,5.70
2017-10-13T17:50:41.258Z,6.93
2017-10-13T17:53:09.632Z,5.70
2017-10-13T17:55:37.984Z,7.07
2017-10-13T17:58:06.495Z,6.73
2017-10-13T18:00:34.872Z,6.80
2017-10-13T18:03:03.264Z,6.40
2017-10-13T18:05:31.652Z,6.57
2017-10-13T18:08:00.053Z,5.87
2017-10-13T18:10:28.542Z,5.87
2017-10-13T18:12:56.990Z,7.50
2017-10-13T18:15:30.362Z,6.80
2017-10-13T18:17:58.798Z,6.13
2017-10-13T18:20:27.252Z,7.80
2017-10-13T18:22:55.674Z,7.50
2017-10-13T18:25:24.050Z,10.57
2017-10-13T18:27:52.466Z,8.67
2017-10-13T18:30:20.825Z,7.73
2017-10-13T18:32:49.188Z,8.37
2017-10-13T18:35:17.506Z,8.60
2017-10-13T18:37:45.941Z,7.57
2017-10-13T18:40:14.308Z,8.80
2017-10-13T18:42:42.684Z,7.23
2017-10-13T18:45:11.110Z,8.60
2017-10-13T18:47:39.524Z,7.73
2017-10-13T18:50:07.951Z,7.00
2017-10-13T18:52:36.291Z,7.17
2017-10-13T18:55:04.653Z,7.83
2017-10-13T18:57:33.361Z,10.63
2017-10-13T19:00:01.861Z,11.20
2017-10-13T19:02:30.439Z,7.30
2017-10-13T19:04:58.871Z,8.33
2017-10-13T19:07:27.281Z,8.40
2017-10-13T19:09:55.686Z,8.60
2017-10-13T19:12:24.012Z,8.50
2017-10-13T19:14:52.671Z,8.17
2017-10-13T19:17:21.215Z,9.07
2017-10-13T19:19:49.621Z,8.47
2017-10-13T19:22:17.978Z,7.97
2017-10-13T19:24:46.344Z,7.83
2017-10-13T19:27:14.788Z,7.83
2017-10-13T19:29:43.106Z,8.73
2017-10-13T19:32:11.437Z,7.47
2017-10-13T19:34:39.826Z,8.13
2017-10-13T19:37:08.238Z,7.37
2017-10-13T19:39:36.674Z,7.70
2017-10-13T19:42:05.006Z,8.73
2017-10-13T19:44:33.625Z,9.70
2017-10-13T19:47:01.997Z,10.47
2017-10-13T19:49:30.416Z,11.83
2017-10-13T19:51:58.871Z,9.73
2017-10-13T19:54:27.411Z,10.77
2017-10-13T19:56:55.811Z,11.20
2017-10-13T19:59:24.297Z,10.67
2017-10-13T20:01:52.668Z,9.20
2017-10-13T20:04:21.058Z,9.73
2017-10-13T20:06:49.465Z,9.67
2017-10-13T20:09:17.863Z,9.50
2017-10-13T20:11:46.233Z,9.87
2017-10-13T20:14:14.581Z,9.67
2017-10-13T20:16:42.974Z,8.90
2017-10-13T20:19:11.340Z,9.50
2017-10-13T20:21:40.802Z,9.37
2017-10-13T20:24:09.335Z,8.47
2017-10-13T20:26:37.923Z,8.90
2017-10-13T20:29:06.385Z,8.33
2017-10-13T20:31:34.742Z,7.63
2017-10-13T20:34:03.109Z,8.60
2017-10-13T20:36:31.488Z,8.53
2017-10-13T20:38:59.968Z,7.47
2017-10-13T20:41:28.405Z,9.70
2017-10-13T20:43:57.793Z,7.47
2017-10-13T20:46:26.274Z,7.83
2017-10-13T20:48:54.947Z,8.23
2017-10-13T20:51:23.469Z,7.90
2017-10-13T20:53:51.855Z,7.70
2017-10-13T20:56:20.210Z,7.90
2017-10-13T20:58:48.532Z,7.77
2017-10-13T21:01:17.860Z,9.10
2017-10-13T21:03:46.200Z,6.63
2017-10-13T21:06:14.587Z,7.83
2017-10-13T21:08:43.139Z,8.20
2017-10-13T21:11:11.522Z,8.63
2017-10-13T21:13:39.916Z,8.47
2017-10-13T21:16:08.289Z,8.47
2017-10-13T21:18:36.730Z,8.53
2017-10-13T21:21:05.178Z,7.80
2017-10-13T21:23:33.562Z,7.50
2017-10-13T21:26:01.937Z,8.07
2017-10-13T21:28:30.516Z,7.90
2017-10-13T21:30:58.983Z,8.63
2017-10-13T21:33:27.373Z,10.30
2017-10-13T21:35:55.762Z,9.20
2017-10-13T21:38:24.140Z,7.97
2017-10-13T21:40:52.499Z,7.03
2017-10-13T21:43:20.854Z,8.47
2017-10-13T21:45:49.196Z,8.43
2017-10-13T21:48:17.560Z,6.80
2017-10-13T21:50:45.888Z,7.23
2017-10-13T21:53:14.260Z,7.80
2017-10-13T21:55:42.610Z,6.50
2017-10-13T21:58:10.993Z,6.50
2017-10-13T22:00:39.349Z,6.40
2017-10-13T22:03:07.722Z,7.90
2017-10-13T22:05:36.080Z,6.60
2017-10-13T22:08:04.424Z,6.80
2017-10-13T22:10:32.850Z,7.57
2017-10-13T22:13:01.185Z,6.90
2017-10-13T22:15:29.539Z,7.30
2017-10-13T22:17:57.939Z,7.40
2017-10-13T22:20:26.285Z,6.90
2017-10-13T22:22:54.694Z,7.67
2017-10-13T22:25:23.026Z,6.60
2017-10-13T22:27:51.425Z,9.80
2017-10-13T22:30:19.749Z,8.13
2017-10-13T22:32:48.076Z,7.53
2017-10-13T22:35:16.475Z,7.30
2017-10-13T22:37:44.854Z,7.17
2017-10-13T22:40:13.226Z,7.80
2017-10-13T22:42:41.563Z,7.70
2017-10-13T22:45:09.873Z,7.73
2017-10-13T22:47:38.233Z,7.80
2017-10-13T22:50:06.587Z,7.53
2017-10-13T22:52:34.935Z,11.20
2017-10-13T22:55:03.262Z,7.83
2017-10-13T22:57:31.589Z,7.77
2017-10-13T22:59:59.924Z,9.27
2017-10-13T23:02:28.277Z,7.97
2017-10-13T23:04:56.697Z,7.73
2017-10-13T23:07:25.047Z,7.97
2017-10-13T23:09:53.365Z,6.70
2017-10-13T23:12:21.758Z,6.60
2017-10-13T23:14:50.076Z,7.60
2017-10-13T23:17:18.389Z,7.17
2017-10-13T23:19:46.749Z,7.17
2017-10-13T23:22:15.069Z,7.10
2017-10-13T23:24:43.412Z,8.40
2017-10-13T23:27:11.722Z,6.63
2017-10-13T23:29:40.085Z,7.83
2017-10-13T23:32:08.463Z,7.10
2017-10-13T23:34:36.831Z,6.43
2017-10-13T23:37:05.137Z,6.20
2017-10-13T23:39:33.689Z,7.10
2017-10-13T23:42:02.000Z,6.20
2017-10-13T23:44:30.342Z,7.17
2017-10-13T23:46:58.697Z,7.37
2017-10-13T23:49:27.073Z,6.33
2017-10-13T23:51:55.397Z,8.00
2017-10-13T23:54:23.792Z,6.70
2017-10-13T23:56:52.094Z,7.80
2017-10-13T23:59:20.450Z,7.50
